createdAt,value
2018-04-19T00:00:55.859Z,5.17
2018-04-19T00:03:24.773Z,5.30
2018-04-19T00:05:53.663Z,5.20
2018-04-19T00:08:22.531Z,5.43
2018-04-19T00:10:51.471Z,5.53
2018-04-19T00:13:20.385Z,5.20
2018-04-19T00:15:49.312Z,5.60
2018-04-19T00:18:18.205Z,5.00
2018-04-19T00:20:47.243Z,5.23
2018-04-19T00:23:16.223Z,5.53
2018-04-19T00:25:45.127Z,6.20
2018-04-19T00:28:14.070Z,5.43
2018-04-19T00:30:42.947Z,5.17
2018-04-19T00:33:12.733Z,5.47
2018-04-19T00:35:42.394Z,5.77
2018-04-19T00:38:11.309Z,5.53
2018-04-19T00:40:40.225Z,5.93
2018-04-19T00:43:09.874Z,5.93
2018-04-19T00:45:38.809Z,6.73
2018-04-19T00:48:07.789Z,6.30
2018-04-19T00:50:36.730Z,7.03
2018-04-19T00:53:10.583Z,6.63
2018-04-19T00:55:39.505Z,6.50
2018-04-19T02:41:08.312Z,6.33
2018-04-19T02:43:37.225Z,5.97
2018-04-19T02:46:06.149Z,6.63
2018-04-19T02:48:35.063Z,7.20
2018-04-19T02:51:03.952Z,7.80
2018-04-19T02:53:32.852Z,7.27
2018-04-19T02:56:03.710Z,6.80
2018-04-19T02:58:36.199Z,7.37
2018-04-19T03:01:05.150Z,7.90
2018-04-19T03:03:34.036Z,7.30
2018-04-19T03:06:02.975Z,7.50
2018-04-19T03:08:32.726Z,7.00
2018-04-19T03:11:01.620Z,8.17
2018-04-19T03:13:30.502Z,7.07
2018-04-19T03:15:59.403Z,7.00
2018-04-19T03:18:28.289Z,6.97
2018-04-19T03:20:57.188Z,6.50
2018-04-19T03:23:26.149Z,6.90
2018-04-19T03:25:55.889Z,7.37
2018-04-19T03:28:24.785Z,6.67
2018-04-19T03:30:57.759Z,7.23
2018-04-19T03:33:29.229Z,6.43
2018-04-19T03:36:00.673Z,6.37
2018-04-19T03:38:29.584Z,6.50
2018-04-19T03:40:58.525Z,6.00
2018-04-19T03:43:28.017Z,5.80
2018-04-19T03:45:57.713Z,6.40
2018-04-19T03:48:26.624Z,7.70
2018-04-19T03:50:55.628Z,7.20
2018-04-19T03:53:24.527Z,6.83
2018-04-19T03:55:53.419Z,6.90
2018-04-19T03:58:22.389Z,7.67
2018-04-19T04:00:52.083Z,7.43
2018-04-19T04:03:20.960Z,6.80
2018-04-19T04:05:49.860Z,7.07
2018-04-19T04:08:18.747Z,6.73
2018-04-19T04:10:47.688Z,6.77
2018-04-19T04:13:16.658Z,6.73
2018-04-19T04:15:45.528Z,6.03
2018-04-19T04:18:32.139Z,6.10
2018-04-19T04:21:10.144Z,7.00
2018-04-19T04:23:52.210Z,6.40
2018-04-19T04:26:21.127Z,6.47
2018-04-19T04:28:50.021Z,7.33
2018-04-19T04:31:19.840Z,8.80
2018-04-19T04:33:48.748Z,9.57
2018-04-19T04:36:17.639Z,8.60
2018-04-19T04:38:46.543Z,8.30
2018-04-19T04:41:15.479Z,8.87
2018-04-19T04:43:44.643Z,7.77
2018-04-19T04:46:13.743Z,7.53
2018-04-19T04:48:42.677Z,7.53
2018-04-19T04:51:12.335Z,8.20
2018-04-19T04:53:41.271Z,6.97
2018-04-19T04:56:10.189Z,7.50
2018-04-19T04:58:39.107Z,7.43
2018-04-19T05:01:08.066Z,7.40
2018-04-19T05:03:37.730Z,7.27
2018-04-19T05:06:07.679Z,8.10
2018-04-19T05:08:37.429Z,7.20
2018-04-19T05:11:06.371Z,7.70
2018-04-19T05:13:35.304Z,7.50
2018-04-19T05:16:04.269Z,7.57
2018-04-19T05:18:33.189Z,7.93
2018-04-19T05:21:02.121Z,6.83
2018-04-19T05:23:31.098Z,7.40
2018-04-19T05:26:00.078Z,7.37
2018-04-19T05:28:28.979Z,9.00
2018-04-19T05:30:57.949Z,6.70
2018-04-19T05:33:27.636Z,7.43
2018-04-19T05:35:56.544Z,7.27
2018-04-19T05:38:25.525Z,6.30
2018-04-19T05:40:54.459Z,11.40
2018-04-19T05:43:23.355Z,6.67
2018-04-19T05:45:52.456Z,6.07
2018-04-19T05:48:21.416Z,5.97
2018-04-19T05:50:50.335Z,6.03
2018-04-19T05:53:19.389Z,6.03
2018-04-19T05:55:48.301Z,6.27
2018-04-19T05:58:17.255Z,6.13
2018-04-19T06:00:46.177Z,6.20
2018-04-19T06:03:15.152Z,6.10
2018-04-19T06:05:44.054Z,6.10
2018-04-19T06:08:12.955Z,6.23
2018-04-19T06:10:41.878Z,5.63
2018-04-19T06:13:10.820Z,6.30
2018-04-19T06:15:39.750Z,5.97
2018-04-19T06:18:08.679Z,6.47
2018-04-19T06:20:37.550Z,7.00
2018-04-19T06:23:07.250Z,7.07
2018-04-19T06:25:38.350Z,6.43
2018-04-19T06:28:22.587Z,6.27
2018-04-19T06:30:51.513Z,6.17
2018-04-19T06:33:21.097Z,6.10
2018-04-19T06:35:50.067Z,6.13
2018-04-19T06:38:19.461Z,5.77
2018-04-19T06:40:49.092Z,6.10
2018-04-19T06:43:18.059Z,5.10
2018-04-19T06:45:46.933Z,5.50
2018-04-19T06:48:18.486Z,5.23
2018-04-19T06:50:47.392Z,5.50
2018-04-19T06:53:17.516Z,5.50
2018-04-19T06:55:46.406Z,5.43
2018-04-19T06:58:16.319Z,5.30
2018-04-19T07:00:45.218Z,5.53
2018-04-19T07:03:14.115Z,6.00
2018-04-19T07:05:43.304Z,6.40
2018-04-19T07:08:12.240Z,6.10
2018-04-19T07:10:41.127Z,5.47
2018-04-19T07:13:10.061Z,5.17
2018-04-19T07:15:39.708Z,5.63
2018-04-19T07:18:08.595Z,5.50
2018-04-19T07:20:38.349Z,5.57
2018-04-19T07:23:07.261Z,5.60
2018-04-19T07:25:36.883Z,5.13
2018-04-19T07:28:06.878Z,5.37
2018-04-19T07:30:38.175Z,4.90
2018-04-19T07:33:07.117Z,5.50
2018-04-19T07:35:36.784Z,5.43
2018-04-19T07:38:07.336Z,5.10
2018-04-19T07:40:36.974Z,5.33
2018-04-19T07:43:05.849Z,4.90
2018-04-19T07:45:36.086Z,5.07
2018-04-19T07:48:07.072Z,4.93
2018-04-19T07:50:36.130Z,5.23
2018-04-19T07:53:05.061Z,4.87
2018-04-19T07:55:34.003Z,4.43
2018-04-19T07:58:04.374Z,4.50
2018-04-19T08:00:33.435Z,4.13
2018-04-19T08:03:02.361Z,3.97
2018-04-19T08:05:31.290Z,4.17
2018-04-19T08:08:00.191Z,4.20
2018-04-19T08:10:30.106Z,3.53
2018-04-19T08:12:59.882Z,4.07
2018-04-19T08:15:28.801Z,4.07
2018-04-19T08:17:58.485Z,3.70
2018-04-19T08:20:27.971Z,3.77
2018-04-19T08:22:56.923Z,4.00
2018-04-19T08:25:26.471Z,4.63
2018-04-19T08:27:55.377Z,4.47
2018-04-19T08:30:24.884Z,4.00
2018-04-19T08:32:53.793Z,4.20
2018-04-19T08:35:24.089Z,4.20
2018-04-19T08:37:53.036Z,4.20
2018-04-19T08:40:21.916Z,3.80
2018-04-19T08:42:50.820Z,3.70
2018-04-19T08:47:59.132Z,3.97
2018-04-19T08:50:28.036Z,4.30
2018-04-19T08:52:59.957Z,3.87
2018-04-19T08:55:29.778Z,4.10
2018-04-19T08:57:59.432Z,3.73
2018-04-19T09:00:29.022Z,2.80
2018-04-19T09:02:57.904Z,3.73
2018-04-19T09:05:26.825Z,4.10
2018-04-19T09:07:58.940Z,3.80
2018-04-19T09:10:28.665Z,3.77
2018-04-19T09:12:57.560Z,3.67
2018-04-19T09:15:26.498Z,4.00
2018-04-19T09:17:55.371Z,4.40
2018-04-19T09:20:24.345Z,3.20
2018-04-19T09:22:53.308Z,3.33
2018-04-19T09:25:22.949Z,4.27
2018-04-19T09:27:52.636Z,4.20
2018-04-19T09:30:22.358Z,3.80
2018-04-19T09:32:52.744Z,3.77
2018-04-19T09:35:21.665Z,14.33
2018-04-19T09:37:51.200Z,4.13
2018-04-19T09:40:20.185Z,5.17
2018-04-19T09:42:49.083Z,6.40
2018-04-19T09:45:18.004Z,9.63
2018-04-19T09:47:46.943Z,11.17
2018-04-19T09:50:16.511Z,29.83
2018-04-19T09:52:45.588Z,12.63
2018-04-19T09:55:14.645Z,14.20
2018-04-19T10:00:47.115Z,6.87
2018-04-19T10:03:19.962Z,6.40
2018-04-19T10:05:48.803Z,10.07
2018-04-19T10:08:17.649Z,2.40
2018-04-19T10:10:47.314Z,2.93
2018-04-19T10:13:16.249Z,2.73
2018-04-19T10:15:45.194Z,2.53
2018-04-19T10:18:17.099Z,2.30
2018-04-19T10:23:40.280Z,2.07
2018-04-19T10:26:11.028Z,2.27
2018-04-19T10:28:40.815Z,2.20
2018-04-19T10:31:10.700Z,2.20
2018-04-19T10:33:40.380Z,2.50
2018-04-19T10:36:09.352Z,2.20
2018-04-19T10:38:41.333Z,2.30
2018-04-19T10:41:11.488Z,3.13
2018-04-19T10:43:41.698Z,3.03
2018-04-19T10:46:11.004Z,2.30
2018-04-19T10:48:40.016Z,2.80
2018-04-19T10:51:10.103Z,2.53
2018-04-19T10:53:39.081Z,2.93
2018-04-19T10:56:09.190Z,2.93
2018-04-19T10:58:38.735Z,2.70
2018-04-19T11:01:08.309Z,2.70
2018-04-19T11:03:37.277Z,2.67
2018-04-19T11:06:07.711Z,3.20
2018-04-19T11:08:38.756Z,2.57
2018-04-19T11:11:07.694Z,2.40
2018-04-19T11:13:38.653Z,3.00
2018-04-19T11:16:07.670Z,2.30
2018-04-19T11:18:37.400Z,2.60
2018-04-19T11:21:06.435Z,2.37
2018-04-19T11:23:35.420Z,2.70
2018-04-19T11:26:04.397Z,2.80
2018-04-19T11:28:33.283Z,2.73
2018-04-19T11:31:04.418Z,2.73
2018-04-19T11:33:33.384Z,2.70
2018-04-19T11:36:04.521Z,2.77
2018-04-19T11:38:33.464Z,2.50
2018-04-19T11:41:03.562Z,2.37
2018-04-19T11:43:33.611Z,2.43
2018-04-19T11:46:02.625Z,2.33
2018-04-19T11:48:31.518Z,2.53
2018-04-19T11:51:01.190Z,2.00
2018-04-19T11:53:30.107Z,2.27
2018-04-19T11:55:59.047Z,2.03
2018-04-19T11:58:29.980Z,2.27
2018-04-19T12:01:00.872Z,1.90
2018-04-19T12:03:29.813Z,2.27
2018-04-19T12:05:58.734Z,2.30
2018-04-19T12:08:27.921Z,2.33
2018-04-19T12:10:56.861Z,2.10
2018-04-19T12:13:28.372Z,2.20
2018-04-19T12:15:57.302Z,2.03
2018-04-19T12:18:27.464Z,2.10
2018-04-19T12:20:56.766Z,2.20
2018-04-19T12:23:26.019Z,1.67
2018-04-19T12:25:56.648Z,1.67
2018-04-19T12:28:26.017Z,2.23
2018-04-19T12:30:57.304Z,2.20
2018-04-19T12:33:26.294Z,2.23
2018-04-19T12:35:56.410Z,1.67
2018-04-19T12:38:27.489Z,2.07
2018-04-19T12:40:56.452Z,1.43
2018-04-19T12:43:28.101Z,1.33
2018-04-19T12:45:57.047Z,1.70
2018-04-19T12:48:26.061Z,1.13
2018-04-19T12:50:55.348Z,1.80
2018-04-19T12:53:24.300Z,1.60
2018-04-19T12:55:53.223Z,1.63
2018-04-19T12:58:23.138Z,1.13
2018-04-19T13:00:52.217Z,1.60
2018-04-19T13:03:21.172Z,1.67
2018-04-19T13:05:51.847Z,1.70
2018-04-19T13:08:20.939Z,1.80
2018-04-19T13:10:49.936Z,1.30
2018-04-19T13:13:19.969Z,2.10
2018-04-19T13:15:48.933Z,1.77
2018-04-19T13:18:17.896Z,1.63
2018-04-19T13:20:47.636Z,1.80
2018-04-19T13:23:17.985Z,1.50
2018-04-19T13:25:48.065Z,1.87
2018-04-19T13:28:17.343Z,1.40
2018-04-19T13:30:46.348Z,1.83
2018-04-19T13:33:16.061Z,1.47
2018-04-19T13:35:46.482Z,1.90
2018-04-19T13:38:16.217Z,2.03
2018-04-19T13:40:45.852Z,1.60
2018-04-19T13:43:15.561Z,1.67
2018-04-19T13:45:45.414Z,1.97
2018-04-19T13:48:17.669Z,1.90
2018-04-19T13:50:47.447Z,1.70
2018-04-19T13:53:17.380Z,1.17
2018-04-19T13:55:46.348Z,1.80
2018-04-19T13:58:15.257Z,1.63
2018-04-19T14:00:44.780Z,1.57
2018-04-19T14:03:13.808Z,1.50
2018-04-19T14:05:43.025Z,1.70
2018-04-19T14:08:12.037Z,1.73
2018-04-19T14:10:42.020Z,1.97
2018-04-19T14:13:11.768Z,2.17
2018-04-19T14:15:40.686Z,2.30
2018-04-19T14:18:13.195Z,2.17
2018-04-19T14:20:42.138Z,2.70
2018-04-19T14:23:12.624Z,2.43
2018-04-19T14:25:41.548Z,2.53
2018-04-19T14:28:10.505Z,2.60
2018-04-19T14:30:40.870Z,2.87
2018-04-19T14:33:10.086Z,2.83
2018-04-19T14:35:40.317Z,3.20
2018-04-19T14:38:10.072Z,3.23
2018-04-19T14:40:39.002Z,2.80
2018-04-19T14:43:07.964Z,3.00
2018-04-19T14:45:37.595Z,3.07
2018-04-19T14:48:06.613Z,2.80
2018-04-19T14:50:35.756Z,2.77
2018-04-19T14:53:04.990Z,3.10
2018-04-19T14:55:33.995Z,3.07
2018-04-19T14:58:05.514Z,3.53
2018-04-19T15:00:34.497Z,2.63
2018-04-19T15:03:04.199Z,3.27
2018-04-19T15:05:33.263Z,3.30
2018-04-19T15:08:02.971Z,2.50
2018-04-19T15:10:32.641Z,2.33
2018-04-19T15:13:01.571Z,3.13
2018-04-19T15:15:31.347Z,3.30
2018-04-19T15:18:00.557Z,3.10
2018-04-19T15:20:30.278Z,3.27
2018-04-19T15:23:00.032Z,2.97
2018-04-19T15:25:28.965Z,3.10
2018-04-19T15:27:57.899Z,2.43
2018-04-19T15:30:26.825Z,3.27
2018-04-19T15:32:55.776Z,2.63
2018-04-19T15:35:24.708Z,2.80
2018-04-19T15:37:53.720Z,2.20
2018-04-19T15:40:22.703Z,3.23
2018-04-19T15:42:51.634Z,2.70
2018-04-19T15:45:20.896Z,3.30
2018-04-19T15:47:49.889Z,2.63
2018-04-19T15:50:19.554Z,3.13
2018-04-19T15:52:48.550Z,2.80
2018-04-19T15:55:19.336Z,3.00
2018-04-19T15:57:48.369Z,2.73
2018-04-19T16:00:17.289Z,2.87
2018-04-19T16:02:46.321Z,2.67
2018-04-19T16:05:17.174Z,2.83
2018-04-19T16:07:48.071Z,2.60
2018-04-19T16:10:17.776Z,2.40
2018-04-19T16:12:46.709Z,2.90
2018-04-19T16:15:17.605Z,3.13
2018-04-19T16:17:47.210Z,3.03
2018-04-19T16:20:16.304Z,3.30
2018-04-19T16:22:45.257Z,2.70
2018-04-19T16:25:14.435Z,2.60
2018-04-19T16:27:44.791Z,2.80
2018-04-19T16:30:13.885Z,3.23
2018-04-19T16:32:42.820Z,3.20
2018-04-19T16:35:11.823Z,3.37
2018-04-19T16:37:41.583Z,3.50
2018-04-19T16:40:10.535Z,3.60
2018-04-19T16:42:40.367Z,4.00
2018-04-19T16:45:09.973Z,3.23
2018-04-19T16:47:38.864Z,3.83
2018-04-19T16:50:09.542Z,3.77
2018-04-19T16:52:38.419Z,3.80
2018-04-19T16:55:07.325Z,4.20
2018-04-19T16:57:36.241Z,4.27
2018-04-19T17:00:05.183Z,4.27
2018-04-19T17:02:34.107Z,3.77
2018-04-19T17:05:03.021Z,3.70
2018-04-19T17:07:32.696Z,3.73
2018-04-19T17:10:01.843Z,3.97
2018-04-19T17:12:31.831Z,4.13
2018-04-19T17:15:03.035Z,3.97
2018-04-19T17:17:31.997Z,4.20
2018-04-19T17:20:10.818Z,3.60
2018-04-19T17:22:41.346Z,3.90
2018-04-19T17:25:10.942Z,3.50
2018-04-19T17:27:41.905Z,4.10
2018-04-19T17:30:12.026Z,3.90
2018-04-19T17:32:40.933Z,4.17
2018-04-19T17:35:09.915Z,3.90
2018-04-19T17:37:39.475Z,3.73
2018-04-19T17:40:09.133Z,4.10
2018-04-19T17:42:38.121Z,4.03
2018-04-19T17:45:09.712Z,3.47
2018-04-19T17:47:39.993Z,3.80
2018-04-19T17:50:09.874Z,3.63
2018-04-19T17:52:39.889Z,3.70
2018-04-19T17:55:09.575Z,3.90
2018-04-19T17:57:40.587Z,3.67
2018-04-19T18:00:09.539Z,8.80
2018-04-19T18:02:38.413Z,4.00
2018-04-19T18:05:07.523Z,3.67
2018-04-19T18:07:39.127Z,3.37
2018-04-19T18:10:09.487Z,3.43
2018-04-19T18:12:38.548Z,3.80
2018-04-19T18:15:18.391Z,3.67
2018-04-19T18:17:47.396Z,3.63
2018-04-19T18:20:17.044Z,3.10
2018-04-19T18:22:47.483Z,3.47
2018-04-19T18:25:19.052Z,3.73
2018-04-19T18:44:17.430Z,3.97
2018-04-19T18:46:46.478Z,3.83
2018-04-19T18:49:21.092Z,4.13
2018-04-19T19:57:54.505Z,4.70
2018-04-19T20:00:23.506Z,4.43
2018-04-19T20:02:55.793Z,4.67
2018-04-19T20:05:25.704Z,4.50
2018-04-19T20:07:55.453Z,3.93
2018-04-19T20:10:24.382Z,4.60
2018-04-19T20:12:54.172Z,4.30
2018-04-19T20:15:23.126Z,3.60
2018-04-19T20:17:57.035Z,4.27
2018-04-19T20:20:26.153Z,4.97
2018-04-19T20:22:55.194Z,5.13
2018-04-19T20:27:59.407Z,4.10
2018-04-19T20:30:28.352Z,4.03
2018-04-19T20:32:58.213Z,3.77
2018-04-19T20:35:32.831Z,3.43
2018-04-19T20:38:02.028Z,3.77
2018-04-19T20:40:31.885Z,4.57
2018-04-19T20:43:04.514Z,3.73
2018-04-19T20:45:33.409Z,3.93
2018-04-19T20:48:02.325Z,3.27
2018-04-19T20:50:31.314Z,3.90
2018-04-19T20:53:00.258Z,3.10
2018-04-19T20:55:29.176Z,3.10
2018-04-19T20:57:58.445Z,3.07
2018-04-19T21:00:28.112Z,3.23
2018-04-19T21:02:57.264Z,2.70
2018-04-19T21:05:26.157Z,3.57
2018-04-19T21:07:56.370Z,3.57
2018-04-19T21:10:26.473Z,3.37
2018-04-19T21:12:56.290Z,2.93
2018-04-19T21:15:26.038Z,3.60
2018-04-19T21:17:55.042Z,3.27
2018-04-19T21:20:24.733Z,3.30
2018-04-19T21:22:53.790Z,3.40
2018-04-19T21:25:22.743Z,3.13
2018-04-19T21:27:52.757Z,3.00
2018-04-19T21:30:22.422Z,3.47
2018-04-19T21:32:52.910Z,3.00
2018-04-19T21:35:24.647Z,2.23
2018-04-19T21:37:54.814Z,2.97
2018-04-19T21:40:23.893Z,2.67
2018-04-19T21:42:53.574Z,2.87
2018-04-19T21:45:24.451Z,2.80
2018-04-19T21:47:54.506Z,2.70
2018-04-19T21:50:23.527Z,3.10
2018-04-19T21:52:52.506Z,2.70
2018-04-19T21:55:21.695Z,3.10
2018-04-19T21:57:50.748Z,3.20
2018-04-19T22:00:20.024Z,2.77
2018-04-19T22:02:49.773Z,3.27
2018-04-19T22:05:22.629Z,2.60
2018-04-19T22:07:54.894Z,3.60
2018-04-19T22:10:27.371Z,3.90
2018-04-19T22:12:56.501Z,3.57
2018-04-19T22:15:27.696Z,3.73
2018-04-19T22:18:01.196Z,3.73
2018-04-19T22:20:33.524Z,3.33
2018-04-19T22:23:05.745Z,3.80
2018-04-19T22:25:38.517Z,4.03
2018-04-19T22:28:13.963Z,3.93
2018-04-19T22:30:48.257Z,4.07
2018-04-19T22:33:20.537Z,3.90
2018-04-19T22:39:51.296Z,3.97
